sensor_id;sensor_type;location;lat;lon;timestamp;temperature;humidity
8643;DHT22;4359;49.358;11.256;2023-07-09T00:02:23;16.40;99.90
8643;DHT22;4359;49.358;11.256;2023-07-09T00:04:50;16.40;99.90
8643;DHT22;4359;49.358;11.256;2023-07-09T00:07:29;16.30;99.90
8643;DHT22;4359;49.358;11.256;2023-07-09T00:09:55;16.30;99.90
8643;DHT22;4359;49.358;11.256;2023-07-09T00:12:21;16.10;99.90
8643;DHT22;4359;49.358;11.256;2023-07-09T00:14:47;16.10;99.90
8643;DHT22;4359;49.358;11.256;2023-07-09T00:17:27;16.10;99.90
8643;DHT22;4359;49.358;11.256;2023-07-09T00:19:53;16.20;99.90
8643;DHT22;4359;49.358;11.256;2023-07-09T00:22:19;16.20;99.90
8643;DHT22;4359;49.358;11.256;2023-07-09T00:24:50;16.10;99.90
8643;DHT22;4359;49.358;11.256;2023-07-09T00:27:21;16.10;99.90
8643;DHT22;4359;49.358;11.256;2023-07-09T00:29:47;16.00;99.90
8643;DHT22;4359;49.358;11.256;2023-07-09T00:32:15;16.00;99.90
8643;DHT22;4359;49.358;11.256;2023-07-09T00:34:42;15.90;99.90
8643;DHT22;4359;49.358;11.256;2023-07-09T00:37:11;15.90;99.90
8643;DHT22;4359;49.358;11.256;2023-07-09T00:39:38;15.90;99.90
8643;DHT22;4359;49.358;11.256;2023-07-09T00:42:07;15.90;99.90
8643;DHT22;4359;49.358;11.256;2023-07-09T00:44:36;15.90;99.90
8643;DHT22;4359;49.358;11.256;2023-07-09T00:53:04;15.80;99.90
8643;DHT22;4359;49.358;11.256;2023-07-09T00:55:39;15.80;99.90
8643;DHT22;4359;49.358;11.256;2023-07-09T00:58:11;15.80;99.90
8643;DHT22;4359;49.358;11.256;2023-07-09T01:00:41;15.70;99.90
8643;DHT22;4359;49.358;11.256;2023-07-09T01:03:34;15.70;99.90
8643;DHT22;4359;49.358;11.256;2023-07-09T01:06:00;15.70;99.90
8643;DHT22;4359;49.358;11.256;2023-07-09T01:08:28;15.70;99.90
8643;DHT22;4359;49.358;11.256;2023-07-09T01:10:57;15.70;99.90
8643;DHT22;4359;49.358;11.256;2023-07-09T01:13:24;15.70;99.90
8643;DHT22;4359;49.358;11.256;2023-07-09T01:15:55;15.60;99.90
8643;DHT22;4359;49.358;11.256;2023-07-09T01:18:21;15.50;99.90
8643;DHT22;4359;49.358;11.256;2023-07-09T01:20:50;15.50;99.90
8643;DHT22;4359;49.358;11.256;2023-07-09T01:23:18;15.50;99.90
8643;DHT22;4359;49.358;11.256;2023-07-09T01:25:50;15.50;99.90
8643;DHT22;4359;49.358;11.256;2023-07-09T01:28:18;15.40;99.90
8643;DHT22;4359;49.358;11.256;2023-07-09T01:30:44;15.30;99.90
8643;DHT22;4359;49.358;11.256;2023-07-09T01:33:10;15.30;99.90
8643;DHT22;4359;49.358;11.256;2023-07-09T01:35:38;15.30;99.90
8643;DHT22;4359;49.358;11.256;2023-07-09T01:38:07;15.20;99.90
8643;DHT22;4359;49.358;11.256;2023-07-09T01:40:34;15.30;99.90
8643;DHT22;4359;49.358;11.256;2023-07-09T01:43:02;15.30;99.90
8643;DHT22;4359;49.358;11.256;2023-07-09T01:45:32;15.30;99.90
8643;DHT22;4359;49.358;11.256;2023-07-09T01:47:58;15.20;99.90
8643;DHT22;4359;49.358;11.256;2023-07-09T01:50:25;15.20;99.90
8643;DHT22;4359;49.358;11.256;2023-07-09T01:52:52;15.10;99.90
8643;DHT22;4359;49.358;11.256;2023-07-09T01:55:19;15.10;99.90
8643;DHT22;4359;49.358;11.256;2023-07-09T01:57:45;15.10;99.90
8643;DHT22;4359;49.358;11.256;2023-07-09T02:00:15;15.00;99.90
8643;DHT22;4359;49.358;11.256;2023-07-09T02:02:42;15.00;99.90
8643;DHT22;4359;49.358;11.256;2023-07-09T02:05:10;14.90;99.90
8643;DHT22;4359;49.358;11.256;2023-07-09T02:07:35;14.80;99.90
8643;DHT22;4359;49.358;11.256;2023-07-09T02:10:01;14.80;99.90
8643;DHT22;4359;49.358;11.256;2023-07-09T02:12:27;14.90;99.90
8643;DHT22;4359;49.358;11.256;2023-07-09T02:14:53;14.90;99.90
8643;DHT22;4359;49.358;11.256;2023-07-09T02:17:19;14.80;99.90
8643;DHT22;4359;49.358;11.256;2023-07-09T02:19:44;14.90;99.90
8643;DHT22;4359;49.358;11.256;2023-07-09T02:22:10;14.90;99.90
8643;DHT22;4359;49.358;11.256;2023-07-09T02:24:37;14.90;99.90
8643;DHT22;4359;49.358;11.256;2023-07-09T02:27:04;14.90;99.90
8643;DHT22;4359;49.358;11.256;2023-07-09T02:29:31;14.80;99.90
8643;DHT22;4359;49.358;11.256;2023-07-09T02:31:58;14.80;99.90
8643;DHT22;4359;49.358;11.256;2023-07-09T02:34:28;14.80;99.90
8643;DHT22;4359;49.358;11.256;2023-07-09T02:36:56;14.80;99.90
8643;DHT22;4359;49.358;11.256;2023-07-09T02:39:23;14.80;99.90
8643;DHT22;4359;49.358;11.256;2023-07-09T02:41:49;14.70;99.90
8643;DHT22;4359;49.358;11.256;2023-07-09T02:44:15;14.60;99.90
8643;DHT22;4359;49.358;11.256;2023-07-09T02:46:41;14.60;99.90
8643;DHT22;4359;49.358;11.256;2023-07-09T02:49:13;14.60;99.90
8643;DHT22;4359;49.358;11.256;2023-07-09T02:51:39;14.50;99.90
8643;DHT22;4359;49.358;11.256;2023-07-09T02:54:05;14.50;99.90
8643;DHT22;4359;49.358;11.256;2023-07-09T02:56:31;14.50;99.90
8643;DHT22;4359;49.358;11.256;2023-07-09T02:58:57;14.50;99.90
8643;DHT22;4359;49.358;11.256;2023-07-09T03:01:23;14.50;99.90
8643;DHT22;4359;49.358;11.256;2023-07-09T03:03:56;14.50;99.90
8643;DHT22;4359;49.358;11.256;2023-07-09T03:06:23;14.50;99.90
8643;DHT22;4359;49.358;11.256;2023-07-09T03:08:49;14.50;99.90
8643;DHT22;4359;49.358;11.256;2023-07-09T03:11:15;14.40;99.90
8643;DHT22;4359;49.358;11.256;2023-07-09T03:13:42;14.40;99.90
8643;DHT22;4359;49.358;11.256;2023-07-09T03:16:07;14.40;99.90
8643;DHT22;4359;49.358;11.256;2023-07-09T03:18:33;14.40;99.90
8643;DHT22;4359;49.358;11.256;2023-07-09T03:20:59;14.40;99.90
8643;DHT22;4359;49.358;11.256;2023-07-09T03:23:25;14.40;99.90
8643;DHT22;4359;49.358;11.256;2023-07-09T03:25:51;14.40;99.90
8643;DHT22;4359;49.358;11.256;2023-07-09T03:28:17;14.40;99.90
8643;DHT22;4359;49.358;11.256;2023-07-09T03:30:47;14.40;99.90
8643;DHT22;4359;49.358;11.256;2023-07-09T03:33:15;14.40;99.90
8643;DHT22;4359;49.358;11.256;2023-07-09T03:35:41;14.30;99.90
8643;DHT22;4359;49.358;11.256;2023-07-09T03:38:08;14.40;99.90
8643;DHT22;4359;49.358;11.256;2023-07-09T03:40:35;14.30;99.90
8643;DHT22;4359;49.358;11.256;2023-07-09T03:43:02;14.40;99.90
8643;DHT22;4359;49.358;11.256;2023-07-09T03:45:28;14.40;99.90
8643;DHT22;4359;49.358;11.256;2023-07-09T03:47:54;14.40;99.90
8643;DHT22;4359;49.358;11.256;2023-07-09T03:50:19;14.40;99.90
8643;DHT22;4359;49.358;11.256;2023-07-09T03:52:45;14.40;99.90
8643;DHT22;4359;49.358;11.256;2023-07-09T03:55:11;14.50;99.90
8643;DHT22;4359;49.358;11.256;2023-07-09T03:57:36;14.60;99.90
8643;DHT22;4359;49.358;11.256;2023-07-09T04:00:03;14.60;99.90
8643;DHT22;4359;49.358;11.256;2023-07-09T04:02:30;14.60;99.90
8643;DHT22;4359;49.358;11.256;2023-07-09T04:04:56;14.50;99.90
8643;DHT22;4359;49.358;11.256;2023-07-09T04:07:21;14.60;99.90
8643;DHT22;4359;49.358;11.256;2023-07-09T04:09:48;14.60;99.90
8643;DHT22;4359;49.358;11.256;2023-07-09T04:12:13;14.70;99.90
8643;DHT22;4359;49.358;11.256;2023-07-09T04:14:39;14.80;99.90
8643;DHT22;4359;49.358;11.256;2023-07-09T04:17:06;14.90;99.90
8643;DHT22;4359;49.358;11.256;2023-07-09T04:19:31;15.00;99.90
8643;DHT22;4359;49.358;11.256;2023-07-09T04:21:57;15.00;99.90
8643;DHT22;4359;49.358;11.256;2023-07-09T04:24:23;15.10;99.90
8643;DHT22;4359;49.358;11.256;2023-07-09T04:26:48;15.10;99.90
8643;DHT22;4359;49.358;11.256;2023-07-09T04:29:14;15.10;99.90
8643;DHT22;4359;49.358;11.256;2023-07-09T04:31:41;15.20;99.90
8643;DHT22;4359;49.358;11.256;2023-07-09T04:34:07;15.30;99.90
8643;DHT22;4359;49.358;11.256;2023-07-09T04:36:33;15.40;99.90
8643;DHT22;4359;49.358;11.256;2023-07-09T04:38:59;15.60;99.90
8643;DHT22;4359;49.358;11.256;2023-07-09T04:41:25;15.70;99.90
8643;DHT22;4359;49.358;11.256;2023-07-09T04:43:51;15.80;99.90
8643;DHT22;4359;49.358;11.256;2023-07-09T04:46:16;15.90;99.90
8643;DHT22;4359;49.358;11.256;2023-07-09T04:48:42;16.10;99.90
8643;DHT22;4359;49.358;11.256;2023-07-09T04:51:08;16.20;99.90
8643;DHT22;4359;49.358;11.256;2023-07-09T04:53:34;16.40;99.90
8643;DHT22;4359;49.358;11.256;2023-07-09T04:56:00;16.50;99.90
8643;DHT22;4359;49.358;11.256;2023-07-09T04:58:28;16.70;99.90
8643;DHT22;4359;49.358;11.256;2023-07-09T05:00:57;16.90;99.90
8643;DHT22;4359;49.358;11.256;2023-07-09T05:03:23;17.00;99.90
8643;DHT22;4359;49.358;11.256;2023-07-09T05:05:48;17.10;99.90
8643;DHT22;4359;49.358;11.256;2023-07-09T05:08:14;17.20;99.90
8643;DHT22;4359;49.358;11.256;2023-07-09T05:10:51;17.30;99.90
8643;DHT22;4359;49.358;11.256;2023-07-09T05:13:17;17.50;99.90
8643;DHT22;4359;49.358;11.256;2023-07-09T05:15:47;17.60;99.90
8643;DHT22;4359;49.358;11.256;2023-07-09T05:18:13;17.80;99.90
8643;DHT22;4359;49.358;11.256;2023-07-09T05:20:39;17.90;99.90
8643;DHT22;4359;49.358;11.256;2023-07-09T05:23:05;18.10;99.90
8643;DHT22;4359;49.358;11.256;2023-07-09T05:25:31;18.20;99.90
8643;DHT22;4359;49.358;11.256;2023-07-09T05:27:57;18.30;99.90
8643;DHT22;4359;49.358;11.256;2023-07-09T05:30:22;18.40;99.90
8643;DHT22;4359;49.358;11.256;2023-07-09T05:32:48;18.60;99.90
8643;DHT22;4359;49.358;11.256;2023-07-09T05:35:14;18.70;99.90
8643;DHT22;4359;49.358;11.256;2023-07-09T05:37:40;18.80;99.90
8643;DHT22;4359;49.358;11.256;2023-07-09T05:40:07;19.10;99.90
8643;DHT22;4359;49.358;11.256;2023-07-09T05:42:34;19.30;99.90
8643;DHT22;4359;49.358;11.256;2023-07-09T05:45:00;19.40;99.90
8643;DHT22;4359;49.358;11.256;2023-07-09T05:47:26;19.60;99.90
8643;DHT22;4359;49.358;11.256;2023-07-09T05:49:52;19.80;99.90
8643;DHT22;4359;49.358;11.256;2023-07-09T05:52:22;20.00;99.90
8643;DHT22;4359;49.358;11.256;2023-07-09T05:54:50;20.20;99.90
8643;DHT22;4359;49.358;11.256;2023-07-09T05:57:16;20.30;99.90
8643;DHT22;4359;49.358;11.256;2023-07-09T05:59:42;20.50;99.90
8643;DHT22;4359;49.358;11.256;2023-07-09T06:02:14;20.70;99.90
8643;DHT22;4359;49.358;11.256;2023-07-09T06:04:40;21.00;99.90
8643;DHT22;4359;49.358;11.256;2023-07-09T06:07:07;21.20;99.90
8643;DHT22;4359;49.358;11.256;2023-07-09T06:09:34;21.40;99.90
8643;DHT22;4359;49.358;11.256;2023-07-09T06:12:00;21.60;99.90
8643;DHT22;4359;49.358;11.256;2023-07-09T06:14:26;21.80;99.90
8643;DHT22;4359;49.358;11.256;2023-07-09T06:16:52;21.90;99.90
8643;DHT22;4359;49.358;11.256;2023-07-09T06:19:18;22.10;99.90
8643;DHT22;4359;49.358;11.256;2023-07-09T06:21:44;22.40;99.90
8643;DHT22;4359;49.358;11.256;2023-07-09T06:24:10;22.60;99.90
8643;DHT22;4359;49.358;11.256;2023-07-09T06:26:35;22.80;99.90
8643;DHT22;4359;49.358;11.256;2023-07-09T06:29:01;23.10;99.90
8643;DHT22;4359;49.358;11.256;2023-07-09T06:31:27;23.40;99.90
8643;DHT22;4359;49.358;11.256;2023-07-09T06:33:53;23.60;99.90
8643;DHT22;4359;49.358;11.256;2023-07-09T06:36:19;23.70;99.90
8643;DHT22;4359;49.358;11.256;2023-07-09T06:38:45;23.90;99.90
8643;DHT22;4359;49.358;11.256;2023-07-09T06:41:12;24.10;99.90
8643;DHT22;4359;49.358;11.256;2023-07-09T06:43:38;24.50;99.90
8643;DHT22;4359;49.358;11.256;2023-07-09T06:46:10;24.80;99.90
8643;DHT22;4359;49.358;11.256;2023-07-09T06:48:35;25.10;99.90
8643;DHT22;4359;49.358;11.256;2023-07-09T06:51:01;25.40;99.90
8643;DHT22;4359;49.358;11.256;2023-07-09T06:53:28;25.50;99.90
8643;DHT22;4359;49.358;11.256;2023-07-09T06:55:55;25.70;99.90
8643;DHT22;4359;49.358;11.256;2023-07-09T06:58:24;26.00;99.90
8643;DHT22;4359;49.358;11.256;2023-07-09T07:00:51;26.40;99.90
8643;DHT22;4359;49.358;11.256;2023-07-09T07:03:17;26.50;99.90
8643;DHT22;4359;49.358;11.256;2023-07-09T07:05:44;26.70;99.90
8643;DHT22;4359;49.358;11.256;2023-07-09T07:08:10;26.90;99.90
8643;DHT22;4359;49.358;11.256;2023-07-09T07:10:36;27.40;99.90
8643;DHT22;4359;49.358;11.256;2023-07-09T07:13:02;27.80;99.90
8643;DHT22;4359;49.358;11.256;2023-07-09T07:15:28;28.00;99.90
8643;DHT22;4359;49.358;11.256;2023-07-09T07:17:53;28.30;99.90
8643;DHT22;4359;49.358;11.256;2023-07-09T07:20:19;28.50;99.90
8643;DHT22;4359;49.358;11.256;2023-07-09T07:22:45;28.60;99.90
8643;DHT22;4359;49.358;11.256;2023-07-09T07:25:11;28.90;99.90
8643;DHT22;4359;49.358;11.256;2023-07-09T07:27:37;29.30;99.90
8643;DHT22;4359;49.358;11.256;2023-07-09T07:30:03;29.80;99.90
8643;DHT22;4359;49.358;11.256;2023-07-09T07:32:29;29.90;99.40
8643;DHT22;4359;49.358;11.256;2023-07-09T07:34:55;30.00;99.10
8643;DHT22;4359;49.358;11.256;2023-07-09T07:37:20;30.30;98.30
8643;DHT22;4359;49.358;11.256;2023-07-09T07:39:49;30.30;97.80
8643;DHT22;4359;49.358;11.256;2023-07-09T07:42:15;30.70;97.70
8643;DHT22;4359;49.358;11.256;2023-07-09T07:44:40;31.10;96.50
8643;DHT22;4359;49.358;11.256;2023-07-09T07:47:06;31.40;96.40
8643;DHT22;4359;49.358;11.256;2023-07-09T07:49:32;31.20;95.50
8643;DHT22;4359;49.358;11.256;2023-07-09T07:51:58;31.20;95.70
8643;DHT22;4359;49.358;11.256;2023-07-09T07:54:24;31.40;95.70
8643;DHT22;4359;49.358;11.256;2023-07-09T07:56:50;31.20;95.50
8643;DHT22;4359;49.358;11.256;2023-07-09T07:59:17;31.30;94.70
8643;DHT22;4359;49.358;11.256;2023-07-09T08:01:43;31.50;95.20
8643;DHT22;4359;49.358;11.256;2023-07-09T08:04:09;31.80;94.60
8643;DHT22;4359;49.358;11.256;2023-07-09T08:06:35;32.10;93.90
8643;DHT22;4359;49.358;11.256;2023-07-09T08:09:01;32.20;95.60
8643;DHT22;4359;49.358;11.256;2023-07-09T08:11:26;32.40;94.80
8643;DHT22;4359;49.358;11.256;2023-07-09T08:13:53;33.00;95.10
8643;DHT22;4359;49.358;11.256;2023-07-09T08:16:19;33.10;93.20
8643;DHT22;4359;49.358;11.256;2023-07-09T08:18:45;33.50;92.60
8643;DHT22;4359;49.358;11.256;2023-07-09T08:21:11;33.30;91.80
8643;DHT22;4359;49.358;11.256;2023-07-09T08:23:36;33.10;91.90
8643;DHT22;4359;49.358;11.256;2023-07-09T08:26:03;33.20;91.10
8643;DHT22;4359;49.358;11.256;2023-07-09T08:28:31;33.50;91.10
8643;DHT22;4359;49.358;11.256;2023-07-09T08:30:57;33.50;90.60
8643;DHT22;4359;49.358;11.256;2023-07-09T08:33:23;33.70;91.30
8643;DHT22;4359;49.358;11.256;2023-07-09T08:35:52;33.80;89.30
8643;DHT22;4359;49.358;11.256;2023-07-09T08:38:18;33.90;88.90
8643;DHT22;4359;49.358;11.256;2023-07-09T08:41:09;33.80;89.70
8643;DHT22;4359;49.358;11.256;2023-07-09T08:49:37;34.50;83.50
8643;DHT22;4359;49.358;11.256;2023-07-09T08:52:00;34.50;83.30
8643;DHT22;4359;49.358;11.256;2023-07-09T08:54:29;34.50;80.60
8643;DHT22;4359;49.358;11.256;2023-07-09T08:57:07;34.40;81.50
8643;DHT22;4359;49.358;11.256;2023-07-09T08:59:36;34.50;80.10
8643;DHT22;4359;49.358;11.256;2023-07-09T09:02:03;34.70;85.50
8643;DHT22;4359;49.358;11.256;2023-07-09T09:04:31;34.70;84.00
8643;DHT22;4359;49.358;11.256;2023-07-09T09:10:02;35.10;80.50
8643;DHT22;4359;49.358;11.256;2023-07-09T09:12:36;35.30;82.30
8643;DHT22;4359;49.358;11.256;2023-07-09T09:15:14;35.20;79.50
8643;DHT22;4359;49.358;11.256;2023-07-09T09:17:41;34.80;77.60
8643;DHT22;4359;49.358;11.256;2023-07-09T09:20:17;34.80;78.70
8643;DHT22;4359;49.358;11.256;2023-07-09T09:23:36;35.10;77.50
8643;DHT22;4359;49.358;11.256;2023-07-09T09:25:37;35.10;75.50
8643;DHT22;4359;49.358;11.256;2023-07-09T09:28:03;34.80;75.30
8643;DHT22;4359;49.358;11.256;2023-07-09T09:30:30;34.30;74.40
8643;DHT22;4359;49.358;11.256;2023-07-09T09:32:59;33.90;72.10
8643;DHT22;4359;49.358;11.256;2023-07-09T09:35:37;34.00;71.60
8643;DHT22;4359;49.358;11.256;2023-07-09T09:38:19;34.60;71.30
8643;DHT22;4359;49.358;11.256;2023-07-09T09:40:45;35.10;74.80
8643;DHT22;4359;49.358;11.256;2023-07-09T09:43:19;35.20;71.00
8643;DHT22;4359;49.358;11.256;2023-07-09T09:45:48;35.50;72.50
8643;DHT22;4359;49.358;11.256;2023-07-09T09:48:19;35.90;73.30
8643;DHT22;4359;49.358;11.256;2023-07-09T09:50:47;35.40;71.00
8643;DHT22;4359;49.358;11.256;2023-07-09T09:53:22;34.20;68.80
8643;DHT22;4359;49.358;11.256;2023-07-09T09:55:49;33.60;75.10
8643;DHT22;4359;49.358;11.256;2023-07-09T09:58:17;33.90;75.10
8643;DHT22;4359;49.358;11.256;2023-07-09T10:00:51;34.70;72.00
8643;DHT22;4359;49.358;11.256;2023-07-09T10:03:18;35.30;70.00
8643;DHT22;4359;49.358;11.256;2023-07-09T10:05:52;35.30;68.90
8643;DHT22;4359;49.358;11.256;2023-07-09T10:08:54;35.60;69.40
8643;DHT22;4359;49.358;11.256;2023-07-09T10:11:46;36.20;69.20
8643;DHT22;4359;49.358;11.256;2023-07-09T10:16:46;36.60;64.90
8643;DHT22;4359;49.358;11.256;2023-07-09T10:22:00;36.50;66.30
8643;DHT22;4359;49.358;11.256;2023-07-09T10:24:42;36.60;65.00
8643;DHT22;4359;49.358;11.256;2023-07-09T10:27:44;36.30;64.90
8643;DHT22;4359;49.358;11.256;2023-07-09T10:30:19;36.50;68.80
8643;DHT22;4359;49.358;11.256;2023-07-09T10:33:00;36.60;67.20
8643;DHT22;4359;49.358;11.256;2023-07-09T10:35:52;36.70;64.80
8643;DHT22;4359;49.358;11.256;2023-07-09T10:38:26;37.00;64.50
8643;DHT22;4359;49.358;11.256;2023-07-09T10:40:56;36.80;63.80
8643;DHT22;4359;49.358;11.256;2023-07-09T10:43:39;37.20;64.60
8643;DHT22;4359;49.358;11.256;2023-07-09T10:46:25;37.00;63.20
8643;DHT22;4359;49.358;11.256;2023-07-09T10:48:54;37.30;63.20
8643;DHT22;4359;49.358;11.256;2023-07-09T10:51:29;37.90;64.40
8643;DHT22;4359;49.358;11.256;2023-07-09T10:56:34;38.60;61.00
8643;DHT22;4359;49.358;11.256;2023-07-09T10:59:28;38.60;61.20
8643;DHT22;4359;49.358;11.256;2023-07-09T11:02:08;38.60;60.30
8643;DHT22;4359;49.358;11.256;2023-07-09T11:05:06;38.60;59.60
8643;DHT22;4359;49.358;11.256;2023-07-09T11:07:44;38.10;60.60
8643;DHT22;4359;49.358;11.256;2023-07-09T11:10:19;37.80;59.90
8643;DHT22;4359;49.358;11.256;2023-07-09T11:12:57;37.60;60.10
8643;DHT22;4359;49.358;11.256;2023-07-09T11:15:30;37.20;60.40
8643;DHT22;4359;49.358;11.256;2023-07-09T11:17:58;37.00;62.30
8643;DHT22;4359;49.358;11.256;2023-07-09T11:20:40;36.70;62.30
8643;DHT22;4359;49.358;11.256;2023-07-09T11:23:21;36.60;62.40
8643;DHT22;4359;49.358;11.256;2023-07-09T11:26:00;36.80;63.70
8643;DHT22;4359;49.358;11.256;2023-07-09T11:28:34;37.40;65.60
8643;DHT22;4359;49.358;11.256;2023-07-09T11:31:06;37.90;63.80
8643;DHT22;4359;49.358;11.256;2023-07-09T11:33:32;38.10;60.00
8643;DHT22;4359;49.358;11.256;2023-07-09T11:36:13;37.60;60.20
8643;DHT22;4359;49.358;11.256;2023-07-09T11:38:47;37.60;60.40
8643;DHT22;4359;49.358;11.256;2023-07-09T11:41:41;37.00;60.90
8643;DHT22;4359;49.358;11.256;2023-07-09T11:44:28;37.20;60.00
8643;DHT22;4359;49.358;11.256;2023-07-09T11:49:59;37.90;60.40
8643;DHT22;4359;49.358;11.256;2023-07-09T11:52:48;38.30;59.30
8643;DHT22;4359;49.358;11.256;2023-07-09T11:55:33;38.90;58.20
8643;DHT22;4359;49.358;11.256;2023-07-09T11:58:04;39.40;60.40
8643;DHT22;4359;49.358;11.256;2023-07-09T12:00:53;38.30;57.90
8643;DHT22;4359;49.358;11.256;2023-07-09T12:03:27;36.20;58.80
8643;DHT22;4359;49.358;11.256;2023-07-09T12:06:00;35.00;60.20
8643;DHT22;4359;49.358;11.256;2023-07-09T12:08:34;34.40;62.20
8643;DHT22;4359;49.358;11.256;2023-07-09T12:11:00;34.90;61.10
8643;DHT22;4359;49.358;11.256;2023-07-09T12:13:26;35.50;63.50
8643;DHT22;4359;49.358;11.256;2023-07-09T12:15:52;36.50;62.40
8643;DHT22;4359;49.358;11.256;2023-07-09T12:18:18;37.30;58.40
8643;DHT22;4359;49.358;11.256;2023-07-09T12:20:49;38.00;58.40
8643;DHT22;4359;49.358;11.256;2023-07-09T12:23:31;38.40;59.10
8643;DHT22;4359;49.358;11.256;2023-07-09T12:26:02;38.60;58.20
8643;DHT22;4359;49.358;11.256;2023-07-09T12:28:29;39.50;57.70
8643;DHT22;4359;49.358;11.256;2023-07-09T12:30:55;39.60;57.60
8643;DHT22;4359;49.358;11.256;2023-07-09T12:33:24;39.80;56.20
8643;DHT22;4359;49.358;11.256;2023-07-09T12:36:04;39.20;57.20
8643;DHT22;4359;49.358;11.256;2023-07-09T12:38:38;37.90;57.80
8643;DHT22;4359;49.358;11.256;2023-07-09T12:41:06;37.50;58.30
8643;DHT22;4359;49.358;11.256;2023-07-09T12:43:39;36.90;58.10
8643;DHT22;4359;49.358;11.256;2023-07-09T12:46:05;36.40;59.20
8643;DHT22;4359;49.358;11.256;2023-07-09T12:48:31;36.50;59.70
8643;DHT22;4359;49.358;11.256;2023-07-09T12:50:58;37.30;58.90
8643;DHT22;4359;49.358;11.256;2023-07-09T12:53:29;38.00;57.80
8643;DHT22;4359;49.358;11.256;2023-07-09T12:55:58;38.50;55.70
8643;DHT22;4359;49.358;11.256;2023-07-09T12:58:37;38.50;57.30
8643;DHT22;4359;49.358;11.256;2023-07-09T13:01:15;38.00;57.40
8643;DHT22;4359;49.358;11.256;2023-07-09T13:03:41;37.80;57.40
8643;DHT22;4359;49.358;11.256;2023-07-09T13:06:30;38.20;58.60
8643;DHT22;4359;49.358;11.256;2023-07-09T13:09:00;39.10;56.80
8643;DHT22;4359;49.358;11.256;2023-07-09T13:11:34;39.20;55.60
8643;DHT22;4359;49.358;11.256;2023-07-09T13:14:05;39.30;55.70
8643;DHT22;4359;49.358;11.256;2023-07-09T13:16:38;39.70;55.90
8643;DHT22;4359;49.358;11.256;2023-07-09T13:19:05;39.80;56.30
8643;DHT22;4359;49.358;11.256;2023-07-09T13:21:31;40.20;54.60
8643;DHT22;4359;49.358;11.256;2023-07-09T13:23:56;39.50;54.70
8643;DHT22;4359;49.358;11.256;2023-07-09T13:26:22;38.50;55.40
8643;DHT22;4359;49.358;11.256;2023-07-09T13:28:48;38.00;58.10
8643;DHT22;4359;49.358;11.256;2023-07-09T13:31:18;36.90;56.90
8643;DHT22;4359;49.358;11.256;2023-07-09T13:33:50;35.80;57.90
8643;DHT22;4359;49.358;11.256;2023-07-09T13:36:17;35.30;59.50
8643;DHT22;4359;49.358;11.256;2023-07-09T13:38:43;35.00;59.30
8643;DHT22;4359;49.358;11.256;2023-07-09T13:41:14;34.70;59.80
8643;DHT22;4359;49.358;11.256;2023-07-09T13:43:44;34.70;60.90
8643;DHT22;4359;49.358;11.256;2023-07-09T13:46:10;34.80;59.70
8643;DHT22;4359;49.358;11.256;2023-07-09T13:48:38;35.10;60.30
8643;DHT22;4359;49.358;11.256;2023-07-09T13:51:18;35.80;60.80
8643;DHT22;4359;49.358;11.256;2023-07-09T13:53:45;35.60;60.20
8643;DHT22;4359;49.358;11.256;2023-07-09T13:56:10;35.60;60.10
8643;DHT22;4359;49.358;11.256;2023-07-09T13:58:36;35.40;59.30
8643;DHT22;4359;49.358;11.256;2023-07-09T14:01:17;35.70;59.50
8643;DHT22;4359;49.358;11.256;2023-07-09T14:03:44;36.50;58.20
8643;DHT22;4359;49.358;11.256;2023-07-09T14:06:14;37.30;58.00
8643;DHT22;4359;49.358;11.256;2023-07-09T14:08:40;37.60;56.70
8643;DHT22;4359;49.358;11.256;2023-07-09T14:11:13;37.90;56.80
8643;DHT22;4359;49.358;11.256;2023-07-09T14:13:39;37.50;57.00
8643;DHT22;4359;49.358;11.256;2023-07-09T14:16:05;36.80;56.70
8643;DHT22;4359;49.358;11.256;2023-07-09T14:18:31;36.00;57.60
8643;DHT22;4359;49.358;11.256;2023-07-09T14:20:56;35.50;59.50
8643;DHT22;4359;49.358;11.256;2023-07-09T14:23:22;35.20;60.50
8643;DHT22;4359;49.358;11.256;2023-07-09T14:25:48;35.00;59.70
8643;DHT22;4359;49.358;11.256;2023-07-09T14:28:19;34.70;60.20
8643;DHT22;4359;49.358;11.256;2023-07-09T14:30:47;34.60;60.80
8643;DHT22;4359;49.358;11.256;2023-07-09T14:33:17;34.40;61.60
8643;DHT22;4359;49.358;11.256;2023-07-09T14:35:44;34.30;61.60
8643;DHT22;4359;49.358;11.256;2023-07-09T14:38:28;34.20;63.50
8643;DHT22;4359;49.358;11.256;2023-07-09T14:40:55;34.10;62.60
8643;DHT22;4359;49.358;11.256;2023-07-09T14:43:22;34.10;65.80
8643;DHT22;4359;49.358;11.256;2023-07-09T14:45:50;34.30;61.20
8643;DHT22;4359;49.358;11.256;2023-07-09T14:48:18;34.30;60.90
8643;DHT22;4359;49.358;11.256;2023-07-09T14:50:45;34.50;65.60
8643;DHT22;4359;49.358;11.256;2023-07-09T14:53:26;35.10;61.80
8643;DHT22;4359;49.358;11.256;2023-07-09T14:55:55;35.00;62.60
8643;DHT22;4359;49.358;11.256;2023-07-09T14:58:22;35.40;63.40
8643;DHT22;4359;49.358;11.256;2023-07-09T15:00:49;35.20;61.40
8643;DHT22;4359;49.358;11.256;2023-07-09T15:03:23;35.40;61.60
8643;DHT22;4359;49.358;11.256;2023-07-09T15:05:50;36.30;61.80
8643;DHT22;4359;49.358;11.256;2023-07-09T15:08:19;37.60;58.30
8643;DHT22;4359;49.358;11.256;2023-07-09T15:10:46;37.40;58.00
8643;DHT22;4359;49.358;11.256;2023-07-09T15:13:30;36.80;57.90
8643;DHT22;4359;49.358;11.256;2023-07-09T15:15:57;36.00;58.90
8643;DHT22;4359;49.358;11.256;2023-07-09T15:18:23;35.40;60.00
8643;DHT22;4359;49.358;11.256;2023-07-09T15:21:09;34.90;62.70
8643;DHT22;4359;49.358;11.256;2023-07-09T15:23:39;34.50;64.70
8643;DHT22;4359;49.358;11.256;2023-07-09T15:26:15;34.30;65.10
8643;DHT22;4359;49.358;11.256;2023-07-09T15:28:41;34.20;64.10
8643;DHT22;4359;49.358;11.256;2023-07-09T15:31:10;34.10;65.60
8643;DHT22;4359;49.358;11.256;2023-07-09T15:33:36;34.50;67.10
8643;DHT22;4359;49.358;11.256;2023-07-09T15:36:10;35.60;66.30
8643;DHT22;4359;49.358;11.256;2023-07-09T15:38:36;36.50;65.80
8643;DHT22;4359;49.358;11.256;2023-07-09T15:41:11;36.90;64.80
8643;DHT22;4359;49.358;11.256;2023-07-09T15:43:38;36.90;64.50
8643;DHT22;4359;49.358;11.256;2023-07-09T15:46:04;36.60;66.50
8643;DHT22;4359;49.358;11.256;2023-07-09T15:48:35;36.20;64.30
8643;DHT22;4359;49.358;11.256;2023-07-09T15:51:03;35.90;62.50
8643;DHT22;4359;49.358;11.256;2023-07-09T15:53:29;35.60;61.80
8643;DHT22;4359;49.358;11.256;2023-07-09T15:56:01;35.80;64.50
8643;DHT22;4359;49.358;11.256;2023-07-09T15:58:32;35.90;66.20
8643;DHT22;4359;49.358;11.256;2023-07-09T16:01:01;35.80;63.30
8643;DHT22;4359;49.358;11.256;2023-07-09T16:03:26;35.70;64.00
8643;DHT22;4359;49.358;11.256;2023-07-09T16:05:52;35.70;65.20
8643;DHT22;4359;49.358;11.256;2023-07-09T16:08:18;35.70;62.30
8643;DHT22;4359;49.358;11.256;2023-07-09T16:10:43;35.70;63.00
8643;DHT22;4359;49.358;11.256;2023-07-09T16:13:22;35.60;62.80
8643;DHT22;4359;49.358;11.256;2023-07-09T16:15:49;35.90;63.00
8643;DHT22;4359;49.358;11.256;2023-07-09T16:18:15;36.50;63.80
8643;DHT22;4359;49.358;11.256;2023-07-09T16:20:41;37.30;62.00
8643;DHT22;4359;49.358;11.256;2023-07-09T16:23:16;38.00;61.10
8643;DHT22;4359;49.358;11.256;2023-07-09T16:25:43;38.30;61.00